createdAt,value
2018-10-12T00:01:56.969Z,21.57
2018-10-12T00:04:24.689Z,21.90
2018-10-12T00:06:52.056Z,21.83
2018-10-12T00:09:19.414Z,21.77
2018-10-12T00:11:46.825Z,21.90
2018-10-12T00:14:14.198Z,23.27
2018-10-12T00:16:41.607Z,20.73
2018-10-12T00:19:08.941Z,22.50
2018-10-12T00:21:36.398Z,21.83
2018-10-12T00:24:03.901Z,23.13
2018-10-12T00:26:31.249Z,22.00
2018-10-12T00:28:58.622Z,22.63
2018-10-12T00:31:25.989Z,20.43
2018-10-12T00:33:53.386Z,21.77
2018-10-12T00:36:20.750Z,21.83
2018-10-12T00:38:48.089Z,21.70
2018-10-12T00:41:15.429Z,22.00
2018-10-12T00:43:43.205Z,21.97
2018-10-12T00:46:10.648Z,22.37
2018-10-12T00:48:38.117Z,23.57
2018-10-12T00:51:05.486Z,21.20
2018-10-12T00:53:33.044Z,21.43
2018-10-12T00:56:00.385Z,21.77
2018-10-12T00:58:27.787Z,21.03
2018-10-12T01:00:55.144Z,22.00
2018-10-12T01:03:22.516Z,22.60
2018-10-12T01:05:49.925Z,24.50
2018-10-12T01:08:17.372Z,22.80
2018-10-12T01:10:44.745Z,24.00
2018-10-12T01:13:12.162Z,23.10
2018-10-12T01:15:39.568Z,23.67
2018-10-12T01:18:07.013Z,21.97
2018-10-12T01:20:34.480Z,22.63
2018-10-12T01:23:02.425Z,21.87
2018-10-12T01:25:29.830Z,23.00
2018-10-12T01:27:57.285Z,24.03
2018-10-12T01:30:24.740Z,21.90
2018-10-12T01:32:57.852Z,22.97
2018-10-12T01:35:25.329Z,22.90
2018-10-12T01:37:52.707Z,24.57
2018-10-12T01:40:20.088Z,24.97
2018-10-12T01:42:47.502Z,23.30
2018-10-12T01:45:14.909Z,22.47
2018-10-12T01:47:42.323Z,22.90
2018-10-12T01:50:10.157Z,24.50
2018-10-12T01:52:38.072Z,26.00
2018-10-12T01:55:05.567Z,24.27
2018-10-12T01:57:32.991Z,25.23
2018-10-12T02:00:00.361Z,25.20
2018-10-12T02:02:27.760Z,24.93
2018-10-12T02:04:55.196Z,25.50
2018-10-12T02:07:22.565Z,25.63
2018-10-12T02:09:50.047Z,25.00
2018-10-12T02:12:17.478Z,24.37
2018-10-12T02:14:44.849Z,26.50
2018-10-12T02:17:12.260Z,23.60
2018-10-12T02:19:39.623Z,23.30
2018-10-12T02:22:07.024Z,23.73
2018-10-12T02:24:34.444Z,25.83
2018-10-12T02:27:01.868Z,25.90
2018-10-12T02:29:29.269Z,25.90
2018-10-12T02:31:56.643Z,24.77
2018-10-12T02:34:24.073Z,24.97
2018-10-12T02:36:51.494Z,24.17
2018-10-12T02:39:18.865Z,25.40
2018-10-12T02:41:46.258Z,23.97
2018-10-12T02:44:13.650Z,25.27
2018-10-12T02:46:41.036Z,26.40
2018-10-12T02:49:08.452Z,25.20
2018-10-12T02:51:36.186Z,22.00
2018-10-12T02:54:03.658Z,24.90
2018-10-12T02:56:31.254Z,24.10
2018-10-12T02:58:58.849Z,24.10
2018-10-12T03:01:26.238Z,25.10
2018-10-12T03:03:53.605Z,23.47
2018-10-12T03:06:20.921Z,24.63
2018-10-12T03:08:48.654Z,24.47
2018-10-12T03:11:16.363Z,25.00
2018-10-12T03:13:43.809Z,25.47
2018-10-12T03:16:12.012Z,24.47
2018-10-12T03:18:39.462Z,25.37
2018-10-12T03:21:07.176Z,25.33
2018-10-12T03:23:34.580Z,21.33
2018-10-12T03:26:02.171Z,24.00
2018-10-12T03:28:32.017Z,23.57
2018-10-12T03:31:00.067Z,26.30
2018-10-12T03:33:28.105Z,25.33
2018-10-12T03:35:55.761Z,24.90
2018-10-12T03:38:23.168Z,27.20
2018-10-12T03:40:50.571Z,24.90
2018-10-12T03:43:17.956Z,26.37
2018-10-12T03:45:45.401Z,25.63
2018-10-12T03:48:12.833Z,24.83
2018-10-12T03:50:40.217Z,25.03
2018-10-12T03:53:08.991Z,25.37
2018-10-12T03:55:36.378Z,24.53
2018-10-12T03:58:03.807Z,25.17
2018-10-12T04:00:31.190Z,23.83
2018-10-12T04:02:58.522Z,26.87
2018-10-12T04:05:25.913Z,25.17
2018-10-12T04:07:53.305Z,25.17
2018-10-12T04:10:20.672Z,24.33
2018-10-12T04:12:48.041Z,22.67
2018-10-12T04:15:15.439Z,23.10
2018-10-12T04:17:42.869Z,24.43
2018-10-12T04:20:10.709Z,25.70
2018-10-12T04:22:38.147Z,25.67
2018-10-12T04:25:05.546Z,26.37
2018-10-12T04:27:32.853Z,24.53
2018-10-12T04:30:00.273Z,25.80
2018-10-12T04:32:27.594Z,25.50
2018-10-12T04:34:54.914Z,26.17
2018-10-12T04:37:22.257Z,26.00
2018-10-12T04:40:01.655Z,24.20
2018-10-12T04:42:29.020Z,24.47
2018-10-12T04:44:56.557Z,23.83
2018-10-12T04:47:26.153Z,24.03
2018-10-12T04:49:53.891Z,24.53
2018-10-12T04:52:22.274Z,24.03
2018-10-12T04:54:49.658Z,24.20
2018-10-12T04:57:17.073Z,26.27
2018-10-12T04:59:44.438Z,23.53
2018-10-12T05:02:11.941Z,26.67
2018-10-12T05:04:39.265Z,25.50
2018-10-12T05:07:06.922Z,26.97
2018-10-12T05:09:34.357Z,24.63
2018-10-12T05:12:01.747Z,24.47
2018-10-12T05:14:29.122Z,24.57
2018-10-12T05:16:56.592Z,24.40
2018-10-12T05:19:23.925Z,26.33
2018-10-12T05:21:51.287Z,26.17
2018-10-12T05:24:18.684Z,24.77
2018-10-12T05:26:46.109Z,23.40
2018-10-12T05:29:13.462Z,22.60
2018-10-12T05:31:40.850Z,25.17
2018-10-12T05:34:08.222Z,23.30
2018-10-12T05:36:35.587Z,25.60
2018-10-12T05:39:04.033Z,25.40
2018-10-12T05:41:31.467Z,24.50
2018-10-12T05:43:58.811Z,25.53
2018-10-12T05:46:26.153Z,24.30
2018-10-12T05:49:04.973Z,23.87
2018-10-12T05:51:32.402Z,25.70
2018-10-12T05:53:59.941Z,25.03
2018-10-12T05:56:29.337Z,24.83
2018-10-12T05:58:57.029Z,24.00
2018-10-12T06:01:24.532Z,23.97
2018-10-12T06:03:51.841Z,18.33
2018-10-12T06:06:19.440Z,22.47
2018-10-12T06:08:46.837Z,21.27
2018-10-12T06:11:14.242Z,24.63
2018-10-12T06:13:41.561Z,23.10
2018-10-12T06:16:08.931Z,22.03
2018-10-12T06:18:36.270Z,20.67
2018-10-12T06:21:03.662Z,21.77
2018-10-12T06:23:31.025Z,22.10
2018-10-12T06:25:58.751Z,21.87
2018-10-12T06:28:26.081Z,21.03
2018-10-12T06:30:53.433Z,20.53
2018-10-12T06:33:20.790Z,22.60
2018-10-12T06:35:48.113Z,19.70
2018-10-12T06:38:15.497Z,20.80
2018-10-12T06:40:42.885Z,19.63
2018-10-12T06:43:10.221Z,23.03
2018-10-12T06:45:37.597Z,22.53
2018-10-12T06:48:05.171Z,20.53
2018-10-12T06:50:32.548Z,19.70
2018-10-12T06:53:00.393Z,20.77
2018-10-12T06:55:27.712Z,20.40
2018-10-12T06:57:55.056Z,18.83
2018-10-12T07:00:22.483Z,17.47
2018-10-12T07:02:49.933Z,18.03
2018-10-12T07:05:17.722Z,21.10
2018-10-12T07:07:45.206Z,20.87
2018-10-12T07:10:12.649Z,20.00
2018-10-12T07:12:40.025Z,21.80
2018-10-12T07:15:08.558Z,16.10
2018-10-12T07:17:35.888Z,19.97
2018-10-12T07:20:03.605Z,19.37
2018-10-12T07:22:31.001Z,19.43
2018-10-12T07:24:58.317Z,20.40
2018-10-12T07:27:25.666Z,19.97
2018-10-12T07:29:53.030Z,19.53
2018-10-12T07:32:20.613Z,18.83
2018-10-12T07:34:47.994Z,19.73
2018-10-12T07:37:15.378Z,18.77
2018-10-12T07:39:42.744Z,20.23
2018-10-12T07:42:10.103Z,17.10
2018-10-12T07:44:37.429Z,19.13
2018-10-12T07:47:04.911Z,17.20
2018-10-12T07:49:32.315Z,16.40
2018-10-12T07:51:59.721Z,19.10
2018-10-12T07:54:27.095Z,18.20
2018-10-12T07:56:54.479Z,18.50
2018-10-12T07:59:21.806Z,18.87
2018-10-12T08:01:49.214Z,19.50
2018-10-12T08:04:16.961Z,16.83
2018-10-12T08:06:44.631Z,18.07
2018-10-12T08:09:11.933Z,15.40
2018-10-12T08:11:39.325Z,16.83
2018-10-12T08:14:06.739Z,16.20
2018-10-12T08:16:34.264Z,16.20
2018-10-12T08:19:01.669Z,15.33
2018-10-12T08:21:30.060Z,15.00
2018-10-12T08:23:57.777Z,15.67
2018-10-12T08:26:25.174Z,15.60
2018-10-12T08:28:56.313Z,15.33
2018-10-12T08:31:23.668Z,15.10
2018-10-12T08:33:51.128Z,14.30
2018-10-12T08:36:18.507Z,13.93
2018-10-12T08:38:45.835Z,13.97
2018-10-12T08:41:13.627Z,13.10
2018-10-12T08:43:41.077Z,12.43
2018-10-12T08:46:08.489Z,11.40
2018-10-12T08:48:35.809Z,11.00
2018-10-12T08:51:03.217Z,11.97
2018-10-12T08:53:30.676Z,10.03
2018-10-12T08:55:58.092Z,10.40
2018-10-12T08:58:25.453Z,10.87
2018-10-12T09:00:52.869Z,9.80
2018-10-12T09:03:20.227Z,10.37
2018-10-12T09:05:47.582Z,9.73
2018-10-12T09:08:15.021Z,9.60
2018-10-12T09:10:42.396Z,9.57
2018-10-12T09:13:10.380Z,9.10
2018-10-12T09:15:37.788Z,11.13
2018-10-12T09:18:05.214Z,9.70
2018-10-12T09:20:32.648Z,10.60
2018-10-12T09:22:59.926Z,9.60
2018-10-12T09:25:27.259Z,9.47
2018-10-12T09:27:54.671Z,10.10
2018-10-12T09:30:22.288Z,8.53
2018-10-12T09:32:49.613Z,10.07
2018-10-12T09:35:17.116Z,9.17
2018-10-12T09:37:44.553Z,9.70
2018-10-12T09:40:11.897Z,9.90
2018-10-12T09:42:39.218Z,9.70
2018-10-12T09:45:06.599Z,9.63
2018-10-12T09:47:33.988Z,9.80
2018-10-12T09:50:01.765Z,10.33
2018-10-12T09:52:29.114Z,8.73
2018-10-12T09:54:56.563Z,9.67
2018-10-12T09:57:24.608Z,8.77
2018-10-12T09:59:52.008Z,9.70
2018-10-12T10:02:27.061Z,10.10
2018-10-12T10:04:58.994Z,8.20
2018-10-12T10:07:26.422Z,8.73
2018-10-12T10:09:53.890Z,8.57
2018-10-12T10:12:21.217Z,8.03
2018-10-12T10:14:48.574Z,7.60
2018-10-12T10:17:15.941Z,8.10
2018-10-12T10:19:43.352Z,7.57
2018-10-12T10:22:10.756Z,8.47
2018-10-12T10:24:38.145Z,8.60
2018-10-12T10:27:06.221Z,7.50
2018-10-12T10:29:33.647Z,8.83
2018-10-12T10:32:01.176Z,7.50
2018-10-12T10:34:28.520Z,6.53
2018-10-12T10:36:55.920Z,7.40
2018-10-12T10:39:23.744Z,7.33
2018-10-12T10:41:51.163Z,7.50
2018-10-12T10:44:18.760Z,7.60
2018-10-12T10:46:46.191Z,7.70
2018-10-12T10:49:13.622Z,7.23
2018-10-12T10:51:40.992Z,7.13
2018-10-12T10:54:08.617Z,6.90
2018-10-12T10:56:35.970Z,7.20
2018-10-12T10:59:03.405Z,6.70
2018-10-12T11:01:31.350Z,6.53
2018-10-12T11:03:58.717Z,5.63
2018-10-12T11:06:26.320Z,6.47
2018-10-12T11:08:53.698Z,5.60
2018-10-12T11:11:21.031Z,5.97
2018-10-12T11:13:48.587Z,5.93
2018-10-12T11:16:15.973Z,5.77
2018-10-12T11:18:43.409Z,5.70
2018-10-12T11:21:12.001Z,5.17
2018-10-12T11:23:39.550Z,6.00
2018-10-12T11:26:07.009Z,5.47
2018-10-12T11:28:34.588Z,5.17
2018-10-12T11:31:02.272Z,5.73
2018-10-12T11:33:29.789Z,6.00
2018-10-12T11:35:57.303Z,5.30
2018-10-12T11:38:24.716Z,5.20
2018-10-12T11:40:52.088Z,4.77
2018-10-12T11:43:25.987Z,4.60
2018-10-12T11:45:53.377Z,5.07
2018-10-12T11:48:20.875Z,5.20
2018-10-12T11:50:48.317Z,4.60
2018-10-12T11:53:15.829Z,4.10
2018-10-12T11:55:45.523Z,4.97
2018-10-12T11:58:12.993Z,4.30
2018-10-12T12:00:40.575Z,3.70
2018-10-12T12:03:07.958Z,3.60
2018-10-12T12:05:35.393Z,3.47
2018-10-12T12:08:02.869Z,3.50
2018-10-12T12:10:30.260Z,3.57
2018-10-12T12:12:57.788Z,3.43
2018-10-12T12:15:25.141Z,3.40
2018-10-12T12:17:52.519Z,3.60
2018-10-12T12:20:19.889Z,3.03
2018-10-12T12:22:47.390Z,3.20
2018-10-12T12:25:14.845Z,3.10
2018-10-12T12:27:42.268Z,3.53
2018-10-12T12:30:10.110Z,3.90
2018-10-12T12:32:37.469Z,3.60
2018-10-12T12:35:04.957Z,3.50
2018-10-12T12:37:32.293Z,3.40
2018-10-12T12:39:59.794Z,3.33
2018-10-12T12:42:27.204Z,3.77
2018-10-12T12:44:54.538Z,3.33
2018-10-12T12:47:22.072Z,3.17
2018-10-12T12:49:49.647Z,3.30
2018-10-12T12:52:17.089Z,3.60
2018-10-12T12:54:44.468Z,3.30
2018-10-12T12:57:11.897Z,4.03
2018-10-12T12:59:39.266Z,4.73
2018-10-12T13:02:06.685Z,3.43
2018-10-12T13:04:34.177Z,3.43
2018-10-12T13:07:01.581Z,3.40
2018-10-12T13:09:28.945Z,3.67
2018-10-12T13:11:56.319Z,3.70
2018-10-12T13:14:23.797Z,4.73
2018-10-12T13:16:51.161Z,3.90
2018-10-12T13:19:18.639Z,3.70
2018-10-12T13:21:46.049Z,3.50
2018-10-12T13:24:13.452Z,3.60
2018-10-12T13:26:40.889Z,4.10
2018-10-12T13:29:08.253Z,4.70
2018-10-12T13:31:35.648Z,3.37
2018-10-12T13:34:03.223Z,3.60
2018-10-12T13:36:30.597Z,4.20
2018-10-12T13:38:57.942Z,3.97
2018-10-12T13:41:25.366Z,4.50
2018-10-12T13:43:52.793Z,4.20
2018-10-12T13:46:20.363Z,3.90
2018-10-12T13:48:47.756Z,4.00
2018-10-12T13:51:15.149Z,3.63
2018-10-12T13:53:42.521Z,4.07
2018-10-12T13:56:09.909Z,3.90
2018-10-12T13:58:37.289Z,4.10
2018-10-12T14:01:04.754Z,3.90
2018-10-12T14:03:32.107Z,3.80
2018-10-12T14:05:59.575Z,3.97
2018-10-12T14:08:26.982Z,4.10
2018-10-12T14:10:54.384Z,6.83
2018-10-12T14:13:21.726Z,4.80
2018-10-12T14:15:49.081Z,4.80
2018-10-12T14:18:16.576Z,5.00
2018-10-12T14:20:56.409Z,4.00
2018-10-12T14:23:23.740Z,3.70
2018-10-12T14:25:51.110Z,4.27
2018-10-12T14:28:18.498Z,3.97
2018-10-12T14:30:45.897Z,3.60
2018-10-12T14:33:13.253Z,3.67
2018-10-12T14:35:40.598Z,3.60
2018-10-12T14:38:07.955Z,3.90
2018-10-12T14:40:35.321Z,3.20
2018-10-12T14:43:03.893Z,3.60
2018-10-12T14:45:31.383Z,3.33
2018-10-12T14:47:58.749Z,4.00
2018-10-12T14:50:29.740Z,3.40
2018-10-12T14:52:57.207Z,3.73
2018-10-12T14:55:24.698Z,3.50
2018-10-12T14:57:52.033Z,3.83
2018-10-12T15:00:19.519Z,3.60
2018-10-12T15:02:46.857Z,8.47
2018-10-12T15:05:14.249Z,3.87
2018-10-12T15:07:41.622Z,3.00
2018-10-12T15:10:09.004Z,3.37
2018-10-12T15:12:36.354Z,3.17
2018-10-12T15:15:12.675Z,3.50
2018-10-12T15:17:40.123Z,3.17
2018-10-12T15:20:07.561Z,3.50
2018-10-12T15:22:34.888Z,3.40
2018-10-12T15:25:03.218Z,3.90
2018-10-12T15:27:30.572Z,3.37
2018-10-12T15:29:57.897Z,4.00
2018-10-12T15:32:25.302Z,3.30
2018-10-12T15:34:52.705Z,3.60
2018-10-12T15:37:20.137Z,3.40
2018-10-12T15:39:47.433Z,3.70
2018-10-12T15:42:14.828Z,3.73
2018-10-12T15:44:42.178Z,4.03
2018-10-12T15:47:09.537Z,4.27
2018-10-12T15:49:36.920Z,3.53
2018-10-12T15:52:04.376Z,3.70
2018-10-12T15:54:31.809Z,4.03
2018-10-12T15:56:59.340Z,4.27
2018-10-12T15:59:26.745Z,4.87
2018-10-12T16:01:54.240Z,3.70
2018-10-12T16:04:21.712Z,4.13
2018-10-12T16:06:49.041Z,3.83
2018-10-12T16:09:16.436Z,5.73
2018-10-12T16:11:43.836Z,5.07
2018-10-12T16:14:11.434Z,4.70
2018-10-12T16:16:38.791Z,4.90
2018-10-12T16:19:06.477Z,4.80
2018-10-12T16:21:33.850Z,6.00
2018-10-12T16:24:09.040Z,5.20
2018-10-12T16:26:36.435Z,5.13
2018-10-12T16:29:03.932Z,5.30
2018-10-12T16:31:31.237Z,4.10
2018-10-12T16:33:58.562Z,3.93
2018-10-12T16:36:25.975Z,5.10
2018-10-12T16:38:53.509Z,4.87
2018-10-12T16:41:20.892Z,5.63
2018-10-12T16:43:48.273Z,7.40
2018-10-12T16:46:15.650Z,5.60
2018-10-12T16:48:43.082Z,6.30
2018-10-12T16:51:10.406Z,6.70
2018-10-12T16:53:37.946Z,5.80
2018-10-12T16:56:05.473Z,5.10
2018-10-12T16:58:32.812Z,5.33
2018-10-12T17:01:00.169Z,8.10
2018-10-12T17:03:27.514Z,7.40
2018-10-12T17:05:54.955Z,8.23
2018-10-12T17:08:22.329Z,8.07
2018-10-12T17:10:49.709Z,9.07
2018-10-12T17:13:17.231Z,8.27
2018-10-12T17:15:44.641Z,8.00
2018-10-12T17:18:12.043Z,7.93
2018-10-12T17:20:39.398Z,5.80
2018-10-12T17:23:07.042Z,5.83
2018-10-12T17:25:34.389Z,6.43
2018-10-12T17:28:01.798Z,5.70
2018-10-12T17:30:29.205Z,6.60
2018-10-12T17:32:56.554Z,6.20
2018-10-12T17:35:23.937Z,5.90
2018-10-12T17:37:51.358Z,5.53
2018-10-12T17:40:18.722Z,5.70
2018-10-12T17:42:46.076Z,6.23
2018-10-12T17:45:13.985Z,6.30
2018-10-12T17:47:41.418Z,5.00
2018-10-12T17:50:08.993Z,6.67
2018-10-12T17:52:36.375Z,6.40
2018-10-12T17:55:03.903Z,6.10
2018-10-12T17:57:32.146Z,6.60
2018-10-12T18:00:00.655Z,5.60
2018-10-12T18:02:28.031Z,6.57
2018-10-12T18:04:55.428Z,5.43
2018-10-12T18:07:22.806Z,6.30
2018-10-12T18:09:50.179Z,6.17
2018-10-12T18:12:17.529Z,5.57
2018-10-12T18:14:44.946Z,6.13
2018-10-12T18:17:12.890Z,6.13
2018-10-12T18:19:40.412Z,6.03
2018-10-12T18:22:08.182Z,5.60
2018-10-12T18:24:35.599Z,5.80
2018-10-12T18:27:03.374Z,6.30
2018-10-12T18:29:30.722Z,5.77
2018-10-12T18:31:58.114Z,6.17
2018-10-12T18:34:25.535Z,6.13
2018-10-12T18:36:52.955Z,6.27
2018-10-12T18:39:20.321Z,5.87
2018-10-12T18:41:47.711Z,6.00
2018-10-12T18:44:15.115Z,5.50
2018-10-12T18:46:42.513Z,5.47
2018-10-12T18:49:09.844Z,5.60
2018-10-12T18:51:37.217Z,6.03
2018-10-12T18:54:04.703Z,5.93
2018-10-12T18:56:32.118Z,6.17
2018-10-12T18:58:59.478Z,5.63
2018-10-12T19:01:26.818Z,6.40
2018-10-12T19:03:54.194Z,5.97
2018-10-12T19:06:21.560Z,6.97
2018-10-12T19:08:48.900Z,6.30
2018-10-12T19:11:16.310Z,6.60
2018-10-12T19:13:43.797Z,6.43
2018-10-12T19:16:11.204Z,6.90
2018-10-12T19:18:38.601Z,5.67
2018-10-12T19:21:06.094Z,5.63
2018-10-12T19:23:35.285Z,5.50
2018-10-12T19:26:03.844Z,6.40
2018-10-12T19:28:31.857Z,7.57
2018-10-12T19:30:59.365Z,6.50
2018-10-12T19:33:26.714Z,6.80
2018-10-12T19:35:54.161Z,6.90
2018-10-12T19:38:21.712Z,7.87
2018-10-12T19:40:49.037Z,7.03
2018-10-12T19:43:16.442Z,6.27
2018-10-12T19:45:43.800Z,7.60
2018-10-12T19:48:11.409Z,6.37
2018-10-12T19:50:38.817Z,7.57
2018-10-12T19:53:06.377Z,7.13
2018-10-12T19:55:33.798Z,7.70
2018-10-12T19:58:01.195Z,7.77
2018-10-12T20:00:28.528Z,6.30
2018-10-12T20:02:55.883Z,6.77
2018-10-12T20:05:23.305Z,6.80
2018-10-12T20:07:50.747Z,7.40
2018-10-12T20:10:18.175Z,8.27
2018-10-12T20:12:45.469Z,7.40
2018-10-12T20:15:13.266Z,7.20
2018-10-12T20:17:40.657Z,6.63
2018-10-12T20:20:08.042Z,6.47
2018-10-12T20:22:35.455Z,5.60
2018-10-12T20:25:02.906Z,7.63
2018-10-12T20:27:30.263Z,7.73
2018-10-12T20:29:57.613Z,6.70
2018-10-12T20:32:25.010Z,7.27
2018-10-12T20:34:52.354Z,7.40
2018-10-12T20:37:19.746Z,6.47
2018-10-12T20:39:47.135Z,7.43
2018-10-12T20:42:14.485Z,7.33
2018-10-12T20:44:41.854Z,9.70
2018-10-12T20:47:09.303Z,8.73
2018-10-12T20:49:36.654Z,7.70
2018-10-12T20:52:04.081Z,9.80
2018-10-12T20:54:31.438Z,8.50
2018-10-12T20:56:58.800Z,7.50
2018-10-12T20:59:26.205Z,7.60
2018-10-12T21:01:53.975Z,7.30
2018-10-12T21:04:21.354Z,7.03
2018-10-12T21:06:48.779Z,7.57
2018-10-12T21:09:16.113Z,7.20
2018-10-12T21:11:43.471Z,6.40
2018-10-12T21:14:10.997Z,7.33
2018-10-12T21:16:38.383Z,7.77
2018-10-12T21:19:05.737Z,7.20
2018-10-12T21:21:33.095Z,6.80
2018-10-12T21:24:00.501Z,7.10
2018-10-12T21:26:27.855Z,6.67
2018-10-12T21:28:55.181Z,9.10
2018-10-12T21:31:22.582Z,8.20
2018-10-12T21:33:49.891Z,7.43
2018-10-12T21:36:17.470Z,8.00
2018-10-12T21:38:44.801Z,7.63
2018-10-12T21:41:12.249Z,7.70
2018-10-12T21:43:39.593Z,6.60
2018-10-12T21:46:06.969Z,7.83
2018-10-12T21:48:34.334Z,7.43
2018-10-12T21:51:01.763Z,7.60
2018-10-12T21:53:29.144Z,7.77
2018-10-12T21:55:56.505Z,8.17
2018-10-12T21:58:23.883Z,9.17
2018-10-12T22:00:56.897Z,8.23
2018-10-12T22:03:24.269Z,7.63
2018-10-12T22:05:52.481Z,7.37
2018-10-12T22:08:25.380Z,7.47
2018-10-12T22:10:52.861Z,8.23
2018-10-12T22:13:20.214Z,7.73
2018-10-12T22:15:47.574Z,7.70
2018-10-12T22:18:15.089Z,7.73
2018-10-12T22:20:42.478Z,8.10
2018-10-12T22:23:09.880Z,7.33
2018-10-12T22:25:37.260Z,9.13
2018-10-12T22:28:04.898Z,8.97
2018-10-12T22:30:32.357Z,9.67
2018-10-12T22:32:59.753Z,8.03
2018-10-12T22:35:27.119Z,8.57
2018-10-12T22:37:54.509Z,8.30
2018-10-12T22:40:21.887Z,8.20
2018-10-12T22:42:49.357Z,8.03
2018-10-12T22:45:16.653Z,8.67
2018-10-12T22:47:44.064Z,7.77
2018-10-12T22:50:11.417Z,8.07
2018-10-12T22:52:38.759Z,8.97
2018-10-12T22:55:06.135Z,7.13
2018-10-12T22:57:33.469Z,7.30
2018-10-12T23:00:01.030Z,7.50
2018-10-12T23:02:28.388Z,7.47
2018-10-12T23:04:55.761Z,7.30
2018-10-12T23:07:23.085Z,7.40
2018-10-12T23:09:50.419Z,7.47
2018-10-12T23:12:17.823Z,8.20
2018-10-12T23:14:45.171Z,7.93
2018-10-12T23:17:12.553Z,7.60
2018-10-12T23:19:39.970Z,8.93
2018-10-12T23:22:07.405Z,8.63
2018-10-12T23:24:34.994Z,8.47
2018-10-12T23:27:02.705Z,8.37
2018-10-12T23:29:30.169Z,8.40
2018-10-12T23:31:57.518Z,9.23
2018-10-12T23:34:31.510Z,10.60
2018-10-12T23:36:58.934Z,9.40
2018-10-12T23:39:26.281Z,9.50
2018-10-12T23:41:53.625Z,7.80
2018-10-12T23:44:21.002Z,7.30
2018-10-12T23:46:48.388Z,8.70
2018-10-12T23:49:15.977Z,7.93
2018-10-12T23:51:43.341Z,9.20
2018-10-12T23:54:10.732Z,8.23
2018-10-12T23:56:38.149Z,8.00
2018-10-12T23:59:05.582Z,8.13
